KLRO/LRO METAR and TAF weather

Enter ICAO airport designator
Station Type Date Time Source
KLRO METAR 2021/03/08 03:15 UTC NOAA

KLRO 080315Z AUTO 00000KT 10SM FEW046 SCT055 03/M02 A3042 RMK AO2


Station Type Date Time Source
KLRO Decoded METAR 2021/03/08 03:15 UTC NOAA

Station name not available
Mar 07, 2021 - 10:15 PM EST / 2021.03.08 0315 UTC
Wind: Calm:0
Visibility: 10 mile(s):0
Sky conditions: partly cloudy
Temperature: 37 F (3 C)
Dew Point: 28 F (-2 C)
Relative Humidity: 69%
Pressure (altimeter): 30.42 in. Hg (1030 hPa)
ob: KLRO 080315Z AUTO 00000KT 10SM FEW046 SCT055 03/M02 A3042 RMK AO2
cycle: 3

Station Type Date Time Source
KLRO TAF UTC NOAA

Error!

Example: see airport list